Time;durP1;ratioP1;P1;durP2;ratioP2;P2;SDS_P1;SDS_P2;PMS_P1;PMS_P2;Temp;Humidity;BMP_temperature;BMP_pressure;BME280_temperature;BME280_humidity;BME280_pressure;Samples;Min_cycle;Max_cycle;Signal;HPM_P1;HPM_P2
2023/04/20 00:02:03;;;;;;;;;;;;;;;10.27;62.80;99568.70;105755;1256;67852;-78
2023/04/20 00:04:32;;;;;;;;;;;;;;;10.26;62.88;99569.14;105591;1256;74270;-79
2023/04/20 00:07:00;;;;;;;;;;;;;;;10.24;62.79;99565.50;105485;1256;60448;-77
2023/04/20 00:09:28;;;;;;;;;;;;;;;10.24;63.10;99566.41;105717;1256;61792;-78
2023/04/20 00:11:56;;;;;;;;;;;;;;;10.26;63.00;99564.73;105693;1258;75633;-76
2023/04/20 00:14:24;;;;;;;;;;;;;;;10.26;62.86;99564.40;105835;1256;69129;-79
2023/04/20 00:16:52;;;;;;;;;;;;;;;10.26;62.87;99562.58;105803;1256;71764;-78
2023/04/20 00:19:21;;;;;;;;;;;;;;;10.25;62.88;99560.15;105799;1256;61285;-78
2023/04/20 00:21:49;;;;;;;;;;;;;;;10.25;62.87;99558.63;105851;1260;61046;-78
2023/04/20 00:24:17;;;;;;;;;;;;;;;10.24;62.79;99556.36;105872;1258;74151;-78
2023/04/20 00:26:45;;;;;;;;;;;;;;;10.25;62.79;99556.06;105756;1261;66857;-79
2023/04/20 00:29:13;;;;;;;;;;;;;;;10.26;62.86;99554.40;105824;1256;72048;-81
2023/04/20 00:31:43;;;;;;;;;;;;;;;10.26;62.88;99554.63;105885;1262;60530;-80
2023/04/20 00:34:15;;;;;;;;;;;;;;;10.27;62.82;99547.09;105856;1256;60476;-78
2023/04/20 00:36:43;;;;;;;;;;;;;;;10.27;62.75;99547.95;105802;1256;74025;-79
2023/04/20 00:39:11;;;;;;;;;;;;;;;10.27;62.85;99540.37;105826;1256;68479;-78
2023/04/20 00:41:39;;;;;;;;;;;;;;;10.27;63.03;99539.14;105848;1258;72675;-78
2023/04/20 00:44:10;;;;;;;;;;;;;;;10.25;63.08;99542.88;105893;1260;60333;-79
2023/04/20 00:46:39;;;;;;;;;;;;;;;10.22;63.37;99534.40;105823;1261;60441;-80
2023/04/20 00:49:10;;;;;;;;;;;;;;;10.20;63.58;99535.20;105735;1256;72746;-79
2023/04/20 00:51:38;;;;;;;;;;;;;;;10.19;63.71;99534.27;105610;1261;69320;-80
2023/04/20 00:54:06;;;;;;;;;;;;;;;10.18;63.79;99530.48;105832;1257;74665;-77
2023/04/20 00:56:35;;;;;;;;;;;;;;;10.17;63.87;99522.41;105827;1256;62864;-79
2023/04/20 00:59:06;;;;;;;;;;;;;;;10.18;63.77;99524.72;105380;1256;61810;-79
2023/04/20 01:01:36;;;;;;;;;;;;;;;10.17;64.03;99519.98;105637;1261;75602;-77
2023/04/20 01:04:06;;;;;;;;;;;;;;;10.16;64.12;99517.79;105811;1256;68855;-77
2023/04/20 01:06:35;;;;;;;;;;;;;;;10.16;64.25;99518.32;105610;1261;73112;-79
2023/04/20 01:09:02;;;;;;;;;;;;;;;10.16;64.35;99514.24;105336;1260;562046;-79
2023/04/20 01:11:31;;;;;;;;;;;;;;;10.15;64.44;99512.02;105540;1256;60462;-79
2023/04/20 01:13:59;;;;;;;;;;;;;;;10.15;64.46;99515.31;105617;1261;74133;-79
2023/04/20 01:16:28;;;;;;;;;;;;;;;10.15;64.52;99513.27;105713;1256;68694;-79
2023/04/20 01:18:56;;;;;;;;;;;;;;;10.14;64.66;99512.35;105817;1256;74213;-80
2023/04/20 01:21:24;;;;;;;;;;;;;;;10.13;64.71;99508.45;105824;1259;60810;-79
2023/04/20 01:23:52;;;;;;;;;;;;;;;10.11;64.61;99502.80;105841;1256;61320;-79
2023/04/20 01:26:21;;;;;;;;;;;;;;;10.10;64.64;99504.95;105766;1256;73878;-77
2023/04/20 01:28:51;;;;;;;;;;;;;;;10.09;64.70;99504.88;105673;1261;69726;-77
2023/04/20 01:31:19;;;;;;;;;;;;;;;10.09;64.57;99503.10;105472;1257;73608;-79
2023/04/20 01:33:48;;;;;;;;;;;;;;;10.10;64.62;99504.84;105806;1261;60455;-79
2023/04/20 01:36:16;;;;;;;;;;;;;;;10.11;64.41;99500.77;105820;1256;60479;-80
2023/04/20 01:38:45;;;;;;;;;;;;;;;10.10;64.31;99499.04;105862;1258;75629;-78
2023/04/20 01:41:13;;;;;;;;;;;;;;;10.11;64.10;99502.48;105819;1259;69520;-77
2023/04/20 01:43:41;;;;;;;;;;;;;;;10.11;64.02;99503.89;105832;1256;74352;-80
2023/04/20 01:46:12;;;;;;;;;;;;;;;10.13;63.96;99500.98;105783;1256;60477;-81
2023/04/20 01:48:40;;;;;;;;;;;;;;;10.13;64.13;99495.89;105856;1258;60909;-80
2023/04/20 01:51:08;;;;;;;;;;;;;;;10.14;63.78;99495.04;105927;1257;73696;-73
2023/04/20 01:53:36;;;;;;;;;;;;;;;10.13;63.91;99495.79;105760;1259;67071;-72
2023/04/20 01:56:04;;;;;;;;;;;;;;;10.13;63.59;99485.84;105839;1257;72415;-71
2023/04/20 01:58:32;;;;;;;;;;;;;;;10.13;63.46;99484.17;105890;1256;60570;-71
2023/04/20 02:01:01;;;;;;;;;;;;;;;10.14;63.23;99482.58;105882;1256;60495;-70
2023/04/20 02:03:29;;;;;;;;;;;;;;;10.14;63.31;99479.89;105228;1259;73719;-71
2023/04/20 02:05:58;;;;;;;;;;;;;;;10.16;63.32;99477.19;105346;1259;69249;-75
2023/04/20 02:08:29;;;;;;;;;;;;;;;10.16;63.16;99479.30;105682;1259;74601;-75
2023/04/20 02:10:57;;;;;;;;;;;;;;;10.16;63.20;99478.92;105838;1256;60800;-75
2023/04/20 02:13:25;;;;;;;;;;;;;;;10.15;63.26;99479.92;105880;1256;61950;-77
2023/04/20 02:15:54;;;;;;;;;;;;;;;10.16;63.21;99476.61;105814;1257;75659;-75
2023/04/20 02:18:23;;;;;;;;;;;;;;;10.16;63.27;99476.13;105629;1260;69456;-75
2023/04/20 02:20:51;;;;;;;;;;;;;;;10.15;63.22;99477.07;105826;1261;73586;-76
2023/04/20 02:23:21;;;;;;;;;;;;;;;10.16;63.03;99473.72;105772;1259;61908;-77
2023/04/20 02:25:49;;;;;;;;;;;;;;;10.16;62.90;99470.66;105866;1256;61661;-75
2023/04/20 02:28:17;;;;;;;;;;;;;;;10.16;62.80;99469.58;105634;1261;73850;-75
2023/04/20 02:30:45;;;;;;;;;;;;;;;10.15;62.91;99468.47;105652;1261;66687;-78
2023/04/20 02:33:14;;;;;;;;;;;;;;;10.15;62.74;99467.98;105834;1258;72711;-76
2023/04/20 02:35:42;;;;;;;;;;;;;;;10.15;62.58;99462.06;105887;1256;61263;-75
2023/04/20 02:38:10;;;;;;;;;;;;;;;10.15;62.09;99460.13;105565;1256;60820;-75
2023/04/20 02:40:38;;;;;;;;;;;;;;;10.14;62.14;99460.71;105682;1259;74820;-77
2023/04/20 02:43:07;;;;;;;;;;;;;;;10.15;62.19;99455.58;105742;1259;67915;-74
2023/04/20 02:45:35;;;;;;;;;;;;;;;10.15;61.96;99457.23;105780;1259;71689;-73
2023/04/20 02:48:04;;;;;;;;;;;;;;;10.16;61.76;99456.95;105843;1256;61325;-73
2023/04/20 02:50:33;;;;;;;;;;;;;;;10.16;61.73;99457.80;105636;1261;60394;-74
2023/04/20 02:53:30;;;;;;;;;;;;;;;10.16;61.16;99455.27;105650;1258;75717;-74
2023/04/20 02:56:34;;;;;;;;;;;;;;;10.16;61.20;99458.66;105592;1258;70153;-74
2023/04/20 02:59:06;;;;;;;;;;;;;;;10.17;61.24;99457.97;105190;1256;73022;-72
2023/04/20 03:01:59;;;;;;;;;;;;;;;10.17;61.29;99460.55;105666;1256;62206;-73
2023/04/20 03:04:29;;;;;;;;;;;;;;;10.16;61.18;99463.17;106015;1256;62809;-74
2023/04/20 03:07:03;;;;;;;;;;;;;;;10.14;61.49;99462.85;105890;1260;75254;-74
2023/04/20 03:09:34;;;;;;;;;;;;;;;10.13;61.77;99462.94;105697;1256;67594;-73
2023/04/20 03:12:21;;;;;;;;;;;;;;;10.11;61.73;99461.27;105637;1256;74594;-74
2023/04/20 03:15:18;;;;;;;;;;;;;;;10.08;62.19;99464.77;105496;1256;61536;-75
2023/04/20 03:18:02;;;;;;;;;;;;;;;10.07;62.25;99464.60;105538;1256;61623;-75
2023/04/20 03:20:31;;;;;;;;;;;;;;;10.06;62.59;99456.54;105596;1256;73866;-75
2023/04/20 03:22:59;;;;;;;;;;;;;;;10.05;62.63;99456.14;105837;1262;67879;-75
2023/04/20 03:25:28;;;;;;;;;;;;;;;10.03;62.79;99461.06;105786;1260;73560;-75
2023/04/20 03:28:02;;;;;;;;;;;;;;;10.03;62.93;99456.33;105827;1260;60574;-73
2023/04/20 03:30:31;;;;;;;;;;;;;;;10.02;63.10;99458.48;105774;1256;60493;-74
2023/04/20 03:33:13;;;;;;;;;;;;;;;10.02;63.19;99462.20;105794;1260;75692;-75
2023/04/20 03:35:41;;;;;;;;;;;;;;;10.03;63.11;99460.25;105648;1260;69928;-75
2023/04/20 03:38:10;;;;;;;;;;;;;;;10.02;63.35;99458.41;105932;1256;73594;-74
2023/04/20 03:40:38;;;;;;;;;;;;;;;10.01;63.37;99453.79;105369;1261;60490;-76
2023/04/20 03:43:06;;;;;;;;;;;;;;;10.00;63.64;99455.66;105880;1261;60565;-72
2023/04/20 03:45:34;;;;;;;;;;;;;;;10.01;63.64;99454.33;105927;1260;74554;-74
2023/04/20 03:48:03;;;;;;;;;;;;;;;10.01;63.89;99451.76;105800;1256;70251;-74
2023/04/20 03:50:31;;;;;;;;;;;;;;;10.02;63.90;99456.33;105446;1258;73406;-73
2023/04/20 03:52:59;;;;;;;;;;;;;;;10.01;64.22;99457.34;105568;1256;62363;-74
2023/04/20 03:55:28;;;;;;;;;;;;;;;10.00;64.55;99457.33;105252;1256;60514;-73
2023/04/20 03:58:00;;;;;;;;;;;;;;;9.99;64.56;99452.59;105177;1261;74116;-72
2023/04/20 04:00:33;;;;;;;;;;;;;;;10.00;64.94;99453.89;105398;1256;69780;-70
2023/04/20 04:03:03;;;;;;;;;;;;;;;10.00;65.69;99450.66;105481;1261;72141;-74
2023/04/20 04:05:32;;;;;;;;;;;;;;;9.99;66.01;99453.50;105855;1256;62182;-72
2023/04/20 04:08:01;;;;;;;;;;;;;;;9.99;66.64;99459.77;105173;1257;61659;-75
2023/04/20 04:10:30;;;;;;;;;;;;;;;9.99;67.09;99456.52;105880;1260;75594;-75
2023/04/20 04:12:58;;;;;;;;;;;;;;;10.00;67.60;99456.50;105753;1257;68696;-75
2023/04/20 04:15:26;;;;;;;;;;;;;;;9.98;68.15;99455.68;105849;1256;72778;-75
2023/04/20 04:18:00;;;;;;;;;;;;;;;9.97;68.29;99455.96;105657;1262;60830;-73
2023/04/20 04:20:28;;;;;;;;;;;;;;;9.97;69.21;99458.00;105652;1257;61849;-72
2023/04/20 04:22:57;;;;;;;;;;;;;;;9.95;69.52;99454.33;105674;1261;75568;-75
2023/04/20 04:25:41;;;;;;;;;;;;;;;9.96;69.59;99453.58;105786;1260;67721;-73
2023/04/20 04:28:10;;;;;;;;;;;;;;;9.94;69.87;99452.52;105634;1260;71848;-73
2023/04/20 04:30:46;;;;;;;;;;;;;;;9.92;70.13;99454.77;105701;1260;61006;-78
2023/04/20 04:33:17;;;;;;;;;;;;;;;9.89;70.15;99453.38;105619;1256;61115;-74
2023/04/20 04:35:47;;;;;;;;;;;;;;;9.88;70.62;99454.45;105591;1256;73241;-76
2023/04/20 04:38:16;;;;;;;;;;;;;;;9.82;71.56;99452.50;105883;1260;67467;-79
2023/04/20 04:40:45;;;;;;;;;;;;;;;9.79;72.21;99457.08;105737;1260;73835;-75
2023/04/20 04:43:13;;;;;;;;;;;;;;;9.78;72.86;99458.40;105509;1258;62618;-75
2023/04/20 04:45:48;;;;;;;;;;;;;;;9.79;73.53;99457.02;105736;1262;61372;-76
2023/04/20 04:48:19;;;;;;;;;;;;;;;9.81;73.61;99455.81;105796;1260;73899;-72
2023/04/20 04:50:47;;;;;;;;;;;;;;;9.81;74.16;99458.55;105545;1256;68560;-75
2023/04/20 04:53:16;;;;;;;;;;;;;;;9.78;75.06;99454.80;105684;1261;74495;-74
2023/04/20 04:55:45;;;;;;;;;;;;;;;9.74;75.82;99459.48;105685;1258;60460;-74
2023/04/20 04:58:14;;;;;;;;;;;;;;;9.72;76.43;99464.19;105588;1256;60567;-75
2023/04/20 05:00:42;;;;;;;;;;;;;;;9.72;76.94;99464.52;105814;1263;74261;-73
2023/04/20 05:03:10;;;;;;;;;;;;;;;9.73;77.99;99464.69;105758;1260;67877;-76
2023/04/20 05:05:38;;;;;;;;;;;;;;;9.72;78.67;99465.20;105813;1256;74010;-74
2023/04/20 05:08:06;;;;;;;;;;;;;;;9.72;79.82;99460.92;105744;1260;62512;-73
2023/04/20 05:10:36;;;;;;;;;;;;;;;9.71;81.08;99461.39;105880;1260;61019;-72
2023/04/20 05:13:04;;;;;;;;;;;;;;;9.70;81.76;99456.85;105248;1258;73959;-72
2023/04/20 05:15:33;;;;;;;;;;;;;;;9.70;82.57;99459.16;105221;1260;69057;-75
2023/04/20 05:18:01;;;;;;;;;;;;;;;9.70;82.86;99453.89;105305;1259;74182;-72
2023/04/20 05:20:29;;;;;;;;;;;;;;;9.69;83.48;99453.08;105374;1258;61190;-74
2023/04/20 05:22:58;;;;;;;;;;;;;;;9.66;84.02;99456.31;105198;1256;62817;-75
2023/04/20 05:25:26;;;;;;;;;;;;;;;9.63;85.12;99463.10;105240;1257;74381;-80
2023/04/20 05:27:54;;;;;;;;;;;;;;;9.60;85.84;99456.99;105155;1261;68615;-71
2023/04/20 05:30:22;;;;;;;;;;;;;;;9.57;86.94;99453.64;105241;1256;71208;-72
2023/04/20 05:32:50;;;;;;;;;;;;;;;9.53;87.91;99456.38;105698;1256;61521;-71
2023/04/20 05:35:20;;;;;;;;;;;;;;;9.47;88.89;99448.29;105369;1260;60783;-73
2023/04/20 05:37:48;;;;;;;;;;;;;;;9.44;89.04;99447.08;105419;1259;75329;-71
2023/04/20 05:40:16;;;;;;;;;;;;;;;9.41;90.07;99455.19;105811;1257;69335;-71
2023/04/20 05:42:45;;;;;;;;;;;;;;;9.41;91.08;99458.14;105255;1267;73455;-71
2023/04/20 05:45:13;;;;;;;;;;;;;;;9.39;91.53;99457.20;105435;1256;63016;-71
2023/04/20 05:47:50;;;;;;;;;;;;;;;9.39;92.05;99451.95;105435;1260;60571;-71
2023/04/20 05:50:18;;;;;;;;;;;;;;;9.40;92.14;99453.30;105428;1261;75792;-70
2023/04/20 05:52:46;;;;;;;;;;;;;;;9.38;93.03;99450.48;105302;1259;67925;-70
2023/04/20 05:55:15;;;;;;;;;;;;;;;9.36;93.19;99452.27;105378;1259;74050;-73
2023/04/20 05:57:46;;;;;;;;;;;;;;;9.35;93.65;99458.54;105231;1261;62172;-69
2023/04/20 06:00:15;;;;;;;;;;;;;;;9.37;94.10;99453.30;105306;1260;60412;-71
2023/04/20 06:02:43;;;;;;;;;;;;;;;9.37;94.39;99456.86;105249;1262;75080;-71
2023/04/20 06:05:11;;;;;;;;;;;;;;;9.42;94.31;99456.02;105327;1257;68643;-72
2023/04/20 06:07:39;;;;;;;;;;;;;;;9.45;94.51;99460.88;105551;1261;73557;-69
2023/04/20 06:10:08;;;;;;;;;;;;;;;9.48;94.40;99462.54;105286;1261;60551;-70
2023/04/20 06:12:36;;;;;;;;;;;;;;;9.48;94.68;99460.01;105247;1261;61625;-71
2023/04/20 06:15:07;;;;;;;;;;;;;;;9.48;94.67;99461.25;105237;1255;75107;-73
2023/04/20 06:17:39;;;;;;;;;;;;;;;9.50;94.64;99461.10;105208;1261;67820;-73
2023/04/20 06:20:08;;;;;;;;;;;;;;;9.55;94.75;99457.91;105188;1260;71824;-71
2023/04/20 06:22:41;;;;;;;;;;;;;;;9.62;95.04;99455.89;105348;1256;64280;-72
2023/04/20 06:25:09;;;;;;;;;;;;;;;9.70;95.26;99446.21;105296;1261;60674;-72
2023/04/20 06:27:37;;;;;;;;;;;;;;;9.73;95.25;99442.50;105360;1260;75093;-74
2023/04/20 06:30:06;;;;;;;;;;;;;;;9.77;94.57;99439.55;105346;1261;68870;-71
2023/04/20 06:32:36;;;;;;;;;;;;;;;9.81;94.43;99444.85;105246;1269;74302;-72
2023/04/20 06:35:05;;;;;;;;;;;;;;;9.89;94.25;99440.59;105233;1256;63156;-71
2023/04/20 06:37:34;;;;;;;;;;;;;;;9.93;93.51;99438.92;105305;1257;60480;-69
2023/04/20 06:40:06;;;;;;;;;;;;;;;9.98;93.31;99434.47;105242;1269;74556;-69
2023/04/20 06:42:36;;;;;;;;;;;;;;;10.05;92.56;99425.52;105247;1260;66995;-72
2023/04/20 06:45:05;;;;;;;;;;;;;;;10.12;91.57;99427.04;105311;1260;73141;-71
2023/04/20 06:47:33;;;;;;;;;;;;;;;10.13;90.56;99416.77;105294;1259;61025;-72
2023/04/20 06:50:06;;;;;;;;;;;;;;;10.15;90.11;99418.95;105314;1269;60480;-71
2023/04/20 06:52:35;;;;;;;;;;;;;;;10.17;89.81;99416.48;105122;1260;75452;-71
2023/04/20 06:55:04;;;;;;;;;;;;;;;10.17;90.13;99414.64;105390;1259;69726;-71
2023/04/20 06:57:33;;;;;;;;;;;;;;;10.21;90.03;99416.30;105365;1261;74218;-71
2023/04/20 07:00:01;;;;;;;;;;;;;;;10.26;89.68;99415.98;105386;1258;63468;-70
2023/04/20 07:02:29;;;;;;;;;;;;;;;10.31;88.72;99414.14;105323;1256;62313;-75
2023/04/20 07:05:01;;;;;;;;;;;;;;;10.37;87.60;99410.71;105191;1260;75709;-75
2023/04/20 07:07:29;;;;;;;;;;;;;;;10.41;86.38;99407.78;105353;1260;67651;-75
2023/04/20 07:09:58;;;;;;;;;;;;;;;10.45;86.09;99406.46;105127;1257;73226;-71
2023/04/20 07:12:27;;;;;;;;;;;;;;;10.47;84.86;99400.90;105291;1263;63124;-74
2023/04/20 07:14:55;;;;;;;;;;;;;;;10.51;84.47;99405.02;105332;1254;61201;-74
2023/04/20 07:17:26;;;;;;;;;;;;;;;10.54;83.61;99397.78;105573;1255;75771;-72
2023/04/20 07:19:55;;;;;;;;;;;;;;;10.56;83.35;99392.95;105483;1259;68616;-74
2023/04/20 07:22:23;;;;;;;;;;;;;;;10.59;82.99;99402.94;105764;1257;71345;-75
2023/04/20 07:24:51;;;;;;;;;;;;;;;10.61;82.72;99399.77;105214;1260;60606;-74
2023/04/20 07:27:19;;;;;;;;;;;;;;;10.60;81.12;99394.27;105148;1260;61782;-76
2023/04/20 07:29:48;;;;;;;;;;;;;;;10.60;80.42;99386.10;105181;1260;75119;-75
2023/04/20 07:32:16;;;;;;;;;;;;;;;10.59;80.11;99397.84;105255;1261;69772;-74
2023/04/20 07:34:45;;;;;;;;;;;;;;;10.61;80.15;99398.26;105346;1260;74772;-77
2023/04/20 07:37:12;;;;;;;;;;;;;;;10.63;79.65;99397.20;105612;1256;60484;-75
2023/04/20 07:39:40;;;;;;;;;;;;;;;10.64;79.84;99395.72;105774;1260;61549;-75
2023/04/20 07:42:08;;;;;;;;;;;;;;;10.65;80.58;99400.17;105156;1258;75423;-75
2023/04/20 07:44:37;;;;;;;;;;;;;;;10.65;81.08;99399.38;105218;1260;68843;-76
2023/04/20 07:47:08;;;;;;;;;;;;;;;10.63;81.48;99388.48;105647;1261;72475;-75
2023/04/20 07:49:37;;;;;;;;;;;;;;;10.59;82.55;99404.98;105160;1261;61266;-75
2023/04/20 07:52:05;;;;;;;;;;;;;;;10.58;83.28;99403.25;105781;1257;60451;-78
2023/04/20 07:54:44;;;;;;;;;;;;;;;10.56;84.72;99394.88;105294;1268;75461;-76
2023/04/20 07:57:14;;;;;;;;;;;;;;;10.47;84.95;99395.36;105487;1258;70026;-77
2023/04/20 07:59:44;;;;;;;;;;;;;;;10.39;84.97;99399.86;105426;1260;73121;-74
2023/04/20 08:02:12;;;;;;;;;;;;;;;10.30;86.21;99397.31;105223;1259;62752;-72
2023/04/20 08:04:40;;;;;;;;;;;;;;;10.23;86.74;99395.67;105301;1261;60766;-73
2023/04/20 08:07:09;;;;;;;;;;;;;;;10.18;87.92;99394.28;105459;1256;74697;-73
2023/04/20 08:09:37;;;;;;;;;;;;;;;10.13;88.21;99405.88;105523;1256;68127;-71
2023/04/20 08:12:06;;;;;;;;;;;;;;;10.12;89.57;99400.75;105427;1255;73231;-70
2023/04/20 08:14:37;;;;;;;;;;;;;;;10.07;90.83;99405.54;105292;1259;63946;-74
2023/04/20 08:17:05;;;;;;;;;;;;;;;9.97;92.47;99405.49;105344;1254;61298;-71
2023/04/20 08:19:33;;;;;;;;;;;;;;;9.91;93.38;99411.30;105196;1261;74152;-75
2023/04/20 08:22:01;;;;;;;;;;;;;;;9.88;94.38;99407.86;105278;1261;66803;-73
2023/04/20 08:24:30;;;;;;;;;;;;;;;9.83;95.10;99404.21;105263;1255;74576;-74
2023/04/20 08:26:58;;;;;;;;;;;;;;;9.79;95.30;99415.02;105443;1258;61600;-75
2023/04/20 08:29:28;;;;;;;;;;;;;;;9.75;96.39;99411.00;105390;1258;60458;-76
2023/04/20 08:31:56;;;;;;;;;;;;;;;9.72;97.00;99414.84;105247;1260;73519;-74
2023/04/20 08:34:24;;;;;;;;;;;;;;;9.70;98.03;99404.01;105650;1259;66800;-74
2023/04/20 08:36:52;;;;;;;;;;;;;;;9.70;98.20;99408.09;105252;1258;75088;-74
2023/04/20 08:39:22;;;;;;;;;;;;;;;9.72;98.52;99416.55;105406;1257;61344;-75
2023/04/20 08:41:54;;;;;;;;;;;;;;;9.72;98.07;99415.84;105617;1258;60454;-73
2023/04/20 08:44:23;;;;;;;;;;;;;;;9.70;98.54;99422.05;105377;1258;74333;-73
2023/04/20 08:46:51;;;;;;;;;;;;;;;9.70;98.95;99416.19;105302;1257;67481;-76
2023/04/20 08:49:19;;;;;;;;;;;;;;;9.68;98.32;99416.23;105208;1256;73494;-78
2023/04/20 08:51:48;;;;;;;;;;;;;;;9.67;98.30;99413.42;105869;1257;62158;-78
2023/04/20 08:54:16;;;;;;;;;;;;;;;9.66;98.75;99414.06;105670;1254;60498;-79
2023/04/20 08:56:45;;;;;;;;;;;;;;;9.61;99.36;99415.50;105505;1260;74045;-80
2023/04/20 08:59:14;;;;;;;;;;;;;;;9.55;100.00;99427.77;105703;1263;68994;-80
2023/04/20 09:01:42;;;;;;;;;;;;;;;9.52;100.00;99420.23;105756;1254;73036;-80
2023/04/20 09:04:17;;;;;;;;;;;;;;;9.52;100.00;99425.16;105334;1258;62660;-80
2023/04/20 09:06:48;;;;;;;;;;;;;;;9.50;100.00;99417.83;105754;1260;60451;-77
2023/04/20 09:09:17;;;;;;;;;;;;;;;9.48;99.80;99406.77;105820;1254;71839;-74
2023/04/20 09:11:45;;;;;;;;;;;;;;;9.55;99.37;99413.06;105741;1257;68334;-76
2023/04/20 09:14:14;;;;;;;;;;;;;;;9.60;99.43;99428.00;105272;1259;73400;-75
2023/04/20 09:16:48;;;;;;;;;;;;;;;9.60;99.46;99418.02;105667;1256;61220;-76
2023/04/20 09:19:23;;;;;;;;;;;;;;;9.63;99.04;99423.48;105682;1260;61759;-77
2023/04/20 09:21:52;;;;;;;;;;;;;;;9.66;99.06;99418.89;105362;1258;74534;-75
2023/04/20 09:24:21;;;;;;;;;;;;;;;9.70;98.05;99424.75;105606;1257;68799;-74
2023/04/20 09:26:49;;;;;;;;;;;;;;;9.72;98.81;99414.82;105821;1254;72438;-74
2023/04/20 09:29:18;;;;;;;;;;;;;;;9.72;98.12;99412.09;105821;1260;61571;-76
2023/04/20 09:31:47;;;;;;;;;;;;;;;9.74;97.73;99409.90;105742;1254;61582;-75
2023/04/20 09:34:15;;;;;;;;;;;;;;;9.78;97.64;99404.42;105701;1261;74504;-78
2023/04/20 09:36:45;;;;;;;;;;;;;;;9.83;97.07;99405.08;105510;1258;70204;-78
2023/04/20 09:39:14;;;;;;;;;;;;;;;9.92;96.39;99404.47;105778;1257;74239;-80
2023/04/20 09:41:43;;;;;;;;;;;;;;;10.02;94.67;99404.95;105904;1254;62445;-73
2023/04/20 09:44:11;;;;;;;;;;;;;;;10.12;94.10;99409.89;105754;1258;61838;-82
2023/04/20 09:46:40;;;;;;;;;;;;;;;10.21;92.67;99401.15;105627;1262;72564;-77
2023/04/20 09:49:10;;;;;;;;;;;;;;;10.32;90.97;99400.60;105652;1257;68881;-78
2023/04/20 09:51:40;;;;;;;;;;;;;;;10.41;88.74;99406.70;105190;1260;74540;-71
2023/04/20 09:54:08;;;;;;;;;;;;;;;10.47;87.34;99404.66;105243;1256;62917;-75
2023/04/20 09:56:37;;;;;;;;;;;;;;;10.55;87.01;99404.30;105739;1257;60477;-71
2023/04/20 09:59:05;;;;;;;;;;;;;;;10.60;85.77;99402.52;105826;1256;75055;-70
2023/04/20 10:01:35;;;;;;;;;;;;;;;10.63;85.94;99404.04;105663;1257;67742;-69
2023/04/20 10:04:06;;;;;;;;;;;;;;;10.64;85.18;99401.80;105847;1260;72907;-74
2023/04/20 10:06:34;;;;;;;;;;;;;;;10.65;85.41;99410.88;105843;1259;63797;-71
2023/04/20 10:09:03;;;;;;;;;;;;;;;10.65;86.01;99416.52;105689;1254;61998;-71
2023/04/20 10:11:33;;;;;;;;;;;;;;;10.68;86.82;99411.57;105659;1256;73641;-69
2023/04/20 10:14:19;;;;;;;;;;;;;;;10.68;86.39;99410.91;105845;1257;69596;-70
2023/04/20 10:16:58;;;;;;;;;;;;;;;10.70;85.65;99402.59;105606;1260;71545;-70
2023/04/20 10:19:35;;;;;;;;;;;;;;;10.73;85.79;99397.19;105175;1260;60886;-76
2023/04/20 10:22:04;;;;;;;;;;;;;;;10.76;85.73;99404.67;105726;1256;60489;-79
2023/04/20 10:24:34;;;;;;;;;;;;;;;10.77;86.78;99404.20;105801;1254;74325;-89
2023/04/20 10:27:14;;;;;;;;;;;;;;;10.74;87.94;99403.52;105690;1257;68305;-77
2023/04/20 10:29:43;;;;;;;;;;;;;;;10.73;88.71;99413.95;105166;1256;71242;-76
2023/04/20 10:32:24;;;;;;;;;;;;;;;10.70;89.62;99414.36;105265;1260;61830;-78
2023/04/20 10:35:01;;;;;;;;;;;;;;;10.69;89.56;99414.48;105507;1254;60905;-78
2023/04/20 10:37:30;;;;;;;;;;;;;;;10.68;87.80;99406.51;105821;1260;73563;-81
2023/04/20 10:39:59;;;;;;;;;;;;;;;10.69;87.25;99413.83;106022;1257;69597;-78
2023/04/20 10:42:30;;;;;;;;;;;;;;;10.69;87.71;99423.73;105875;1260;75364;-79
2023/04/20 10:44:59;;;;;;;;;;;;;;;10.66;87.35;99420.03;105701;1257;62483;-77
2023/04/20 10:47:28;;;;;;;;;;;;;;;10.62;87.14;99420.33;105775;1257;60547;-76
2023/04/20 10:50:25;;;;;;;;;;;;;;;10.60;86.95;99422.04;105772;1259;73941;-78
2023/04/20 10:52:53;;;;;;;;;;;;;;;10.60;86.87;99426.07;105737;1256;68995;-77
2023/04/20 10:55:23;;;;;;;;;;;;;;;10.63;86.12;99417.97;105831;1260;71659;-82
2023/04/20 10:57:52;;;;;;;;;;;;;;;10.68;85.55;99424.58;105762;1254;60554;-76
2023/04/20 11:00:21;;;;;;;;;;;;;;;10.70;85.33;99428.35;105866;1257;60589;-79
2023/04/20 11:02:50;;;;;;;;;;;;;;;10.72;85.42;99434.72;105759;1256;74682;-77
2023/04/20 11:05:20;;;;;;;;;;;;;;;10.72;85.00;99427.66;105920;1256;68214;-76
2023/04/20 11:07:55;;;;;;;;;;;;;;;10.72;85.19;99427.57;105862;1260;73005;-76
2023/04/20 11:10:38;;;;;;;;;;;;;;;10.74;85.58;99438.17;105691;1256;63880;-77
2023/04/20 11:13:17;;;;;;;;;;;;;;;10.74;86.00;99435.06;105515;1261;60388;-77
2023/04/20 11:15:45;;;;;;;;;;;;;;;10.73;84.59;99437.15;105768;1254;73581;-77
2023/04/20 11:18:14;;;;;;;;;;;;;;;10.74;84.20;99437.30;105837;1254;68850;-75
2023/04/20 11:20:52;;;;;;;;;;;;;;;10.74;82.41;99428.66;105709;1258;73173;-76
2023/04/20 11:23:21;;;;;;;;;;;;;;;10.76;80.61;99431.64;105342;1260;62165;-71
2023/04/20 11:25:56;;;;;;;;;;;;;;;10.81;80.64;99439.27;105657;1258;60418;-72
2023/04/20 11:28:29;;;;;;;;;;;;;;;10.85;78.74;99427.66;105688;1260;73570;-73
2023/04/20 11:30:59;;;;;;;;;;;;;;;10.90;77.53;99430.13;105784;1256;68936;-72
2023/04/20 11:33:27;;;;;;;;;;;;;;;10.97;77.41;99444.91;105481;1261;75030;-78
2023/04/20 11:35:56;;;;;;;;;;;;;;;11.00;77.52;99435.89;105970;1254;61919;-74
2023/04/20 11:38:28;;;;;;;;;;;;;;;11.02;76.78;99440.66;105419;1260;60461;-69
2023/04/20 11:40:56;;;;;;;;;;;;;;;11.04;76.94;99438.98;105262;1256;74643;-73
2023/04/20 11:43:24;;;;;;;;;;;;;;;11.06;76.67;99439.81;105799;1258;67790;-73
2023/04/20 11:45:52;;;;;;;;;;;;;;;11.08;76.68;99439.35;105671;1256;72607;-74
2023/04/20 11:48:21;;;;;;;;;;;;;;;11.09;76.91;99438.32;105729;1260;60498;-74
2023/04/20 11:50:49;;;;;;;;;;;;;;;11.11;76.64;99435.92;105788;1256;62010;-75
2023/04/20 11:53:17;;;;;;;;;;;;;;;11.12;76.45;99434.05;105752;1260;74762;-70
2023/04/20 11:55:45;;;;;;;;;;;;;;;11.11;76.50;99433.83;105689;1260;68721;-72
2023/04/20 11:58:13;;;;;;;;;;;;;;;11.10;77.03;99429.02;105832;1256;74209;-72
2023/04/20 12:00:42;;;;;;;;;;;;;;;11.09;76.41;99431.05;105338;1256;60459;-71
2023/04/20 12:03:10;;;;;;;;;;;;;;;11.09;76.28;99429.54;105664;1256;60469;-72
2023/04/20 12:05:38;;;;;;;;;;;;;;;11.10;75.50;99427.19;105657;1256;74681;-77
2023/04/20 12:08:07;;;;;;;;;;;;;;;11.13;75.58;99425.42;105736;1256;69595;-79
2023/04/20 12:10:38;;;;;;;;;;;;;;;11.17;75.57;99422.98;105604;1260;71606;-77
2023/04/20 12:13:06;;;;;;;;;;;;;;;11.21;74.25;99423.65;105832;1259;61076;-79
2023/04/20 12:15:35;;;;;;;;;;;;;;;11.26;73.69;99417.23;105907;1256;61962;-79
2023/04/20 12:18:03;;;;;;;;;;;;;;;11.31;73.84;99426.35;105891;1258;75325;-77
2023/04/20 12:20:32;;;;;;;;;;;;;;;11.35;74.27;99425.19;105739;1256;69494;-76
2023/04/20 12:23:01;;;;;;;;;;;;;;;11.40;74.29;99425.64;105766;1258;72795;-78
2023/04/20 12:25:29;;;;;;;;;;;;;;;11.44;73.87;99419.25;105725;1256;61916;-80
2023/04/20 12:27:57;;;;;;;;;;;;;;;11.48;72.80;99420.35;105615;1256;60477;-75
2023/04/20 12:30:28;;;;;;;;;;;;;;;11.53;72.57;99420.48;105619;1257;73960;-73
2023/04/20 12:32:56;;;;;;;;;;;;;;;11.58;72.59;99418.73;105812;1254;69199;-74
2023/04/20 12:35:24;;;;;;;;;;;;;;;11.62;72.36;99424.02;105942;1257;75358;-74
2023/04/20 12:37:52;;;;;;;;;;;;;;;11.66;72.54;99421.19;105633;1256;61187;-73
2023/04/20 12:40:20;;;;;;;;;;;;;;;11.67;72.37;99418.98;105180;1258;60522;-73
2023/04/20 12:42:50;;;;;;;;;;;;;;;11.67;72.44;99415.79;105291;1256;74506;-74
2023/04/20 12:45:18;;;;;;;;;;;;;;;11.67;72.50;99424.70;105710;1256;69689;-75
2023/04/20 12:47:46;;;;;;;;;;;;;;;11.67;72.66;99422.64;105794;1258;72487;-78
2023/04/20 12:50:14;;;;;;;;;;;;;;;11.66;72.39;99423.48;105754;1256;60921;-72
2023/04/20 12:52:45;;;;;;;;;;;;;;;11.66;71.94;99428.35;105358;1256;60700;-83
2023/04/20 12:55:15;;;;;;;;;;;;;;;11.66;71.47;99429.31;105610;1256;73631;-82